createdAt,value
2023-04-08T00:00:54.862Z,34.03
2023-04-08T00:01:52.439Z,32.67
2023-04-08T00:02:49.387Z,37.45
2023-04-08T00:03:46.328Z,32.00
2023-04-08T00:04:43.333Z,36.63
2023-04-08T00:05:40.005Z,33.50
2023-04-08T00:06:37.310Z,32.97
2023-04-08T00:07:34.194Z,36.13
2023-04-08T00:08:31.067Z,32.25
2023-04-08T00:09:27.709Z,32.47
2023-04-08T00:10:26.407Z,38.97
2023-04-08T00:11:23.105Z,32.22
2023-04-08T00:12:19.791Z,39.88
2023-04-08T00:13:16.404Z,36.25
2023-04-08T00:14:13.031Z,36.80
2023-04-08T00:15:10.029Z,33.63
2023-04-08T00:16:06.713Z,40.00
2023-04-08T00:17:03.423Z,36.58
2023-04-08T00:18:00.198Z,37.72
2023-04-08T00:18:57.277Z,32.35
2023-04-08T00:19:55.418Z,32.90
2023-04-08T00:20:52.011Z,35.70
2023-04-08T00:21:48.707Z,35.45
2023-04-08T00:22:45.907Z,32.78
2023-04-08T00:23:42.456Z,37.42
2023-04-08T00:24:40.568Z,36.63
2023-04-08T00:25:37.265Z,31.65
2023-04-08T00:26:33.886Z,36.97
2023-04-08T00:27:30.537Z,37.88
2023-04-08T00:28:27.078Z,32.78
2023-04-08T00:29:23.795Z,36.22
2023-04-08T00:30:20.465Z,32.97
2023-04-08T00:31:17.259Z,33.33
2023-04-08T00:32:13.906Z,32.65
2023-04-08T00:33:10.715Z,32.45
2023-04-08T00:34:07.396Z,39.75
2023-04-08T00:35:04.805Z,35.63
2023-04-08T00:36:01.447Z,36.08
2023-04-08T00:36:58.283Z,34.40
2023-04-08T00:37:54.911Z,34.38
2023-04-08T00:38:51.921Z,33.88
2023-04-08T00:39:48.758Z,36.30
2023-04-08T00:40:45.471Z,34.35
2023-04-08T00:41:42.155Z,31.92
2023-04-08T00:42:39.211Z,37.60
2023-04-08T00:43:35.928Z,38.60
2023-04-08T00:44:32.510Z,33.25
2023-04-08T00:45:29.141Z,38.45
2023-04-08T00:46:26.872Z,35.97
2023-04-08T00:47:24.028Z,34.00
2023-04-08T00:48:20.716Z,38.58
2023-04-08T00:49:17.939Z,36.70
2023-04-08T00:50:14.563Z,37.20
2023-04-08T00:51:11.296Z,38.85
2023-04-08T00:52:07.898Z,36.95
2023-04-08T00:53:04.495Z,35.25
2023-04-08T00:54:01.069Z,36.72
2023-04-08T00:54:57.651Z,34.67
2023-04-08T00:55:54.260Z,35.20
2023-04-08T00:56:51.203Z,36.40
2023-04-08T00:57:48.460Z,35.85
2023-04-08T00:58:45.227Z,37.13
2023-04-08T00:59:42.942Z,38.30
2023-04-08T01:00:43.901Z,38.03
2023-04-08T01:02:10.044Z,33.80
2023-04-08T01:03:36.601Z,33.45
2023-04-08T01:04:38.730Z,32.65
2023-04-08T01:05:54.224Z,26.80
2023-04-08T01:07:08.794Z,26.83
2023-04-08T01:08:08.591Z,26.77
2023-04-08T01:09:06.172Z,29.10
2023-04-08T01:10:07.825Z,26.67
2023-04-08T01:11:08.438Z,27.33
2023-04-08T01:12:08.161Z,30.48
2023-04-08T01:13:10.240Z,25.38
2023-04-08T01:14:10.306Z,26.30
2023-04-08T01:15:08.825Z,25.88
2023-04-08T01:16:06.295Z,30.00
2023-04-08T01:17:04.065Z,28.60
2023-04-08T01:18:02.742Z,27.58
2023-04-08T01:18:59.683Z,27.55
2023-04-08T01:19:59.523Z,28.10
2023-04-08T01:20:56.912Z,22.70
2023-04-08T01:21:59.192Z,26.13
2023-04-08T01:23:01.913Z,24.95
2023-04-08T01:24:18.808Z,25.95
2023-04-08T01:25:19.977Z,25.35
2023-04-08T01:26:23.098Z,22.65
2023-04-08T01:27:19.957Z,28.52
2023-04-08T01:28:19.685Z,28.38
2023-04-08T01:29:17.350Z,23.50
2023-04-08T01:30:16.218Z,25.13
2023-04-08T01:31:12.976Z,22.13
2023-04-08T01:32:11.998Z,25.00
2023-04-08T01:33:12.351Z,22.08
2023-04-08T01:34:11.976Z,25.45
2023-04-08T01:35:09.867Z,24.17
2023-04-08T01:36:08.013Z,20.83
2023-04-08T01:37:06.361Z,23.77
2023-04-08T01:38:03.823Z,22.40
2023-04-08T01:39:03.156Z,25.77
2023-04-08T01:40:01.627Z,23.65
2023-04-08T01:40:58.958Z,25.13
2023-04-08T01:41:57.282Z,23.23
2023-04-08T01:42:59.783Z,25.48
2023-04-08T01:44:56.480Z,21.88
2023-04-08T01:45:58.330Z,27.02
2023-04-08T01:46:56.828Z,19.92
2023-04-08T01:47:53.801Z,23.77
2023-04-08T01:48:51.736Z,23.33
2023-04-08T01:49:50.435Z,23.80
2023-04-08T01:50:47.901Z,23.88
2023-04-08T01:51:46.633Z,19.88
2023-04-08T01:52:45.328Z,21.98
2023-04-08T01:53:42.120Z,22.65
2023-04-08T01:54:38.950Z,22.65
2023-04-08T01:55:36.454Z,21.70
2023-04-08T01:56:39.349Z,19.80
2023-04-08T01:57:38.772Z,23.95
2023-04-08T01:58:39.786Z,22.42
2023-04-08T01:59:40.318Z,18.63
2023-04-08T02:00:39.091Z,19.50
2023-04-08T02:01:36.460Z,25.00
2023-04-08T02:02:35.907Z,18.80
2023-04-08T02:03:35.789Z,18.70
2023-04-08T02:04:34.502Z,19.48
2023-04-08T02:05:31.216Z,23.52
2023-04-08T02:06:29.412Z,21.15
2023-04-08T02:07:26.038Z,20.30
2023-04-08T02:08:22.683Z,20.58
2023-04-08T02:09:19.353Z,19.45
2023-04-08T02:10:16.338Z,19.92
2023-04-08T02:11:13.196Z,21.10
2023-04-08T02:12:09.910Z,20.25
2023-04-08T02:13:07.493Z,23.17
2023-04-08T02:14:04.338Z,22.98
2023-04-08T02:15:01.255Z,21.88
2023-04-08T02:16:04.862Z,21.67
2023-04-08T02:17:04.268Z,20.92
2023-04-08T02:18:09.087Z,22.42
2023-04-08T02:19:16.728Z,19.23
2023-04-08T02:20:50.355Z,21.13
2023-04-08T02:21:52.558Z,18.30
2023-04-08T02:23:02.394Z,20.40
2023-04-08T02:24:01.233Z,19.55
2023-04-08T02:25:01.282Z,21.20
2023-04-08T02:25:58.438Z,21.95
2023-04-08T02:26:56.857Z,17.48
2023-04-08T02:27:56.598Z,31.27
2023-04-08T02:28:55.409Z,19.15
2023-04-08T02:29:56.167Z,19.20
2023-04-08T02:30:53.482Z,22.35
2023-04-08T02:31:51.323Z,20.13
2023-04-08T02:32:49.189Z,19.52
2023-04-08T02:33:46.721Z,19.27
2023-04-08T02:34:44.357Z,22.02
2023-04-08T02:35:41.941Z,21.75
2023-04-08T02:36:41.022Z,19.52
2023-04-08T02:37:38.039Z,24.95
2023-04-08T02:38:34.647Z,17.30
2023-04-08T02:39:34.859Z,20.55
2023-04-08T02:40:33.606Z,17.75
2023-04-08T02:41:31.444Z,15.23
2023-04-08T02:42:28.042Z,20.42
2023-04-08T02:43:31.774Z,22.77
2023-04-08T02:44:28.429Z,21.35
2023-04-08T02:45:31.403Z,17.52
2023-04-08T02:46:28.024Z,19.50
2023-04-08T02:47:24.555Z,21.88
2023-04-08T02:48:21.182Z,16.20
2023-04-08T02:49:17.755Z,20.83
2023-04-08T02:50:14.388Z,17.90
2023-04-08T02:51:11.022Z,20.98
2023-04-08T02:52:07.667Z,18.30
2023-04-08T02:53:04.323Z,18.60
2023-04-08T02:54:00.919Z,19.48
2023-04-08T02:54:57.570Z,20.95
2023-04-08T02:55:54.125Z,17.55
2023-04-08T02:56:50.866Z,19.08
2023-04-08T02:57:49.058Z,18.38
2023-04-08T02:58:46.155Z,23.25
2023-04-08T02:59:42.872Z,21.92
2023-04-08T03:00:39.925Z,21.05
2023-04-08T03:01:36.619Z,20.33
2023-04-08T03:02:33.593Z,21.42
2023-04-08T03:03:31.377Z,19.40
2023-04-08T03:04:28.030Z,18.92
2023-04-08T03:05:26.667Z,19.73
2023-04-08T03:06:23.277Z,18.33
2023-04-08T03:07:19.867Z,24.20
2023-04-08T03:08:16.466Z,20.02
2023-04-08T03:09:13.087Z,20.27
2023-04-08T03:10:09.908Z,20.05
2023-04-08T03:11:06.627Z,22.77
2023-04-08T03:12:03.262Z,18.48
2023-04-08T03:12:59.917Z,22.40
2023-04-08T03:13:56.666Z,19.48
2023-04-08T03:14:53.652Z,21.52
2023-04-08T03:15:50.275Z,20.00
2023-04-08T03:16:46.982Z,25.45
2023-04-08T03:17:43.893Z,23.70
2023-04-08T03:18:40.596Z,19.60
2023-04-08T03:19:37.149Z,22.42
2023-04-08T03:20:33.825Z,23.02
2023-04-08T03:21:32.487Z,27.35
2023-04-08T03:22:29.089Z,21.17
2023-04-08T03:23:25.829Z,23.50
2023-04-08T03:24:22.460Z,21.27
2023-04-08T03:25:19.163Z,19.13
2023-04-08T03:26:15.875Z,23.95
2023-04-08T03:27:12.784Z,20.23
2023-04-08T03:28:09.380Z,21.33
2023-04-08T03:29:07.004Z,21.83
2023-04-08T03:30:04.438Z,14.57
2023-04-08T03:31:01.420Z,18.20
2023-04-08T03:31:58.128Z,16.65
2023-04-08T03:32:55.072Z,22.38
2023-04-08T03:33:51.906Z,20.55
2023-04-08T03:34:53.666Z,23.85
2023-04-08T03:35:50.625Z,21.35
2023-04-08T03:36:47.394Z,24.05
2023-04-08T03:37:44.007Z,20.08
2023-04-08T03:38:40.827Z,19.15
2023-04-08T03:39:38.010Z,19.35
2023-04-08T03:40:34.679Z,16.15
2023-04-08T03:41:31.364Z,16.17
2023-04-08T03:42:27.910Z,18.02
2023-04-08T03:43:25.580Z,16.35
2023-04-08T03:44:22.248Z,16.50
2023-04-08T03:45:19.192Z,13.10
2023-04-08T03:46:15.972Z,14.77
2023-04-08T03:47:12.617Z,17.13
2023-04-08T03:48:09.332Z,17.27
2023-04-08T03:49:05.922Z,15.05
2023-04-08T03:50:02.539Z,20.40
2023-04-08T03:50:59.172Z,16.40
2023-04-08T03:51:55.827Z,17.38
2023-04-08T03:52:52.397Z,13.75
2023-04-08T03:53:49.332Z,14.68
2023-04-08T03:54:45.908Z,16.17
2023-04-08T03:55:42.518Z,13.45
2023-04-08T03:56:39.231Z,13.25
2023-04-08T03:57:35.915Z,14.48
2023-04-08T03:58:32.575Z,15.10
2023-04-08T03:59:29.358Z,15.10
2023-04-08T04:00:25.987Z,11.93
2023-04-08T04:01:22.572Z,17.75
2023-04-08T04:02:19.249Z,19.15
2023-04-08T04:03:16.258Z,12.85
2023-04-08T04:04:13.533Z,15.93
2023-04-08T04:05:11.231Z,13.63
2023-04-08T04:06:07.998Z,14.95
2023-04-08T04:07:04.553Z,14.98
2023-04-08T04:08:01.253Z,15.85
2023-04-08T04:08:57.865Z,13.85
2023-04-08T04:09:56.945Z,16.20
2023-04-08T04:10:53.621Z,11.85
2023-04-08T04:11:50.443Z,15.20
2023-04-08T04:12:47.775Z,14.50
2023-04-08T04:13:44.446Z,17.85
2023-04-08T04:14:41.113Z,16.65
2023-04-08T04:15:41.417Z,15.65
2023-04-08T04:16:38.135Z,16.65
2023-04-08T04:17:34.760Z,15.85
2023-04-08T04:18:31.433Z,16.17
2023-04-08T04:19:31.997Z,14.48
2023-04-08T04:20:30.355Z,16.33
2023-04-08T04:21:27.310Z,15.77
2023-04-08T04:22:24.208Z,18.48
2023-04-08T04:23:21.354Z,15.25
2023-04-08T04:24:18.097Z,15.70
2023-04-08T04:25:14.680Z,15.25
2023-04-08T04:26:12.036Z,14.70
2023-04-08T04:27:08.669Z,16.38
2023-04-08T04:28:05.566Z,16.85
2023-04-08T04:29:02.095Z,17.52
2023-04-08T04:29:58.698Z,19.98
2023-04-08T04:30:56.550Z,15.95
2023-04-08T04:31:53.486Z,16.48
2023-04-08T04:32:50.094Z,18.40
2023-04-08T04:33:47.424Z,13.63
2023-04-08T04:34:44.787Z,14.65
2023-04-08T04:35:41.492Z,13.57
2023-04-08T04:36:38.153Z,17.02
2023-04-08T04:37:34.887Z,14.23
2023-04-08T04:38:31.670Z,18.08
2023-04-08T04:39:28.266Z,13.77
2023-04-08T04:40:24.937Z,17.63
2023-04-08T04:41:22.012Z,15.38
2023-04-08T04:42:18.608Z,15.95
2023-04-08T04:43:15.394Z,16.33
2023-04-08T04:44:12.151Z,15.32
2023-04-08T04:45:10.120Z,16.45
2023-04-08T04:46:09.083Z,15.48
2023-04-08T04:47:05.813Z,19.75
2023-04-08T04:48:03.783Z,13.68
2023-04-08T04:49:00.464Z,14.55
2023-04-08T04:49:57.013Z,17.65
2023-04-08T04:50:57.921Z,15.90
2023-04-08T04:51:54.579Z,13.77
2023-04-08T04:52:51.412Z,12.82
2023-04-08T04:53:49.992Z,18.10
2023-04-08T04:54:46.572Z,13.10
2023-04-08T04:55:43.129Z,17.02
2023-04-08T04:56:39.780Z,16.48
2023-04-08T04:57:36.339Z,16.10
2023-04-08T04:58:32.936Z,16.20
2023-04-08T04:59:29.549Z,15.95
2023-04-08T05:00:26.147Z,14.18
2023-04-08T05:01:22.799Z,17.48
2023-04-08T05:02:19.505Z,16.13
2023-04-08T05:03:16.782Z,16.67
2023-04-08T05:04:13.597Z,13.05
2023-04-08T05:05:10.650Z,15.55
2023-04-08T05:06:07.333Z,15.25
2023-04-08T05:07:03.910Z,18.40
2023-04-08T05:08:00.554Z,22.92
2023-04-08T05:08:57.137Z,17.80
2023-04-08T05:09:54.686Z,15.30
2023-04-08T05:10:51.451Z,15.02
2023-04-08T05:11:48.076Z,16.02
2023-04-08T05:12:44.715Z,16.23
2023-04-08T05:13:41.777Z,17.50
2023-04-08T05:14:38.417Z,14.70
2023-04-08T05:15:35.059Z,19.48
2023-04-08T05:16:31.897Z,17.35
2023-04-08T05:17:28.582Z,21.17
2023-04-08T05:18:25.294Z,16.75
2023-04-08T05:19:23.405Z,20.20
2023-04-08T05:20:20.085Z,16.58
2023-04-08T05:21:16.664Z,18.10
2023-04-08T05:22:13.371Z,18.73
2023-04-08T05:23:10.033Z,21.30
2023-04-08T05:24:06.996Z,18.40
2023-04-08T05:25:04.692Z,16.40
2023-04-08T05:26:01.471Z,15.27
2023-04-08T05:26:58.059Z,16.80
2023-04-08T05:27:54.811Z,19.35
2023-04-08T05:28:52.081Z,24.73
2023-04-08T05:29:48.891Z,18.95
2023-04-08T05:30:52.463Z,17.35
2023-04-08T05:31:49.439Z,15.55
2023-04-08T05:32:46.469Z,17.55
2023-04-08T05:33:43.268Z,17.65
2023-04-08T05:34:39.872Z,18.35
2023-04-08T05:35:36.547Z,16.98
2023-04-08T05:36:33.098Z,19.08
2023-04-08T05:37:29.957Z,19.85
2023-04-08T05:38:26.626Z,21.23
2023-04-08T05:39:23.242Z,23.35
2023-04-08T05:40:19.953Z,17.08
2023-04-08T05:41:16.530Z,19.05
2023-04-08T05:42:13.993Z,16.67
2023-04-08T05:43:10.664Z,17.27
2023-04-08T05:44:07.842Z,20.17
2023-04-08T05:45:05.548Z,18.75
2023-04-08T05:46:09.705Z,17.13
2023-04-08T05:47:06.409Z,16.98
2023-04-08T05:48:03.108Z,16.80
2023-04-08T05:48:59.698Z,20.02
2023-04-08T05:49:56.438Z,20.05
2023-04-08T05:50:53.003Z,18.60
2023-04-08T05:51:49.618Z,18.00
2023-04-08T05:52:46.344Z,21.92
2023-04-08T05:53:42.959Z,20.55
2023-04-08T05:54:43.460Z,19.60
2023-04-08T05:55:40.904Z,19.88
2023-04-08T05:56:37.472Z,19.20
2023-04-08T05:57:34.160Z,21.73
2023-04-08T05:58:30.733Z,23.42
2023-04-08T05:59:27.275Z,20.60
2023-04-08T06:00:23.965Z,19.95
2023-04-08T06:01:20.637Z,18.65
2023-04-08T06:02:17.325Z,21.15
2023-04-08T06:03:14.329Z,21.00
2023-04-08T06:04:11.424Z,16.92
2023-04-08T06:05:08.507Z,21.35
2023-04-08T06:06:11.445Z,22.40
2023-04-08T06:07:08.537Z,21.25
2023-04-08T06:08:05.359Z,20.25
2023-04-08T06:09:02.067Z,20.40
2023-04-08T06:09:58.716Z,21.08
2023-04-08T06:10:55.644Z,25.20
2023-04-08T06:11:52.605Z,21.40
2023-04-08T06:12:49.237Z,21.40
2023-04-08T06:13:45.929Z,21.83
2023-04-08T06:14:42.641Z,25.17
2023-04-08T06:15:39.221Z,22.55
2023-04-08T06:16:35.849Z,21.88
2023-04-08T06:17:32.714Z,24.10
2023-04-08T06:18:29.297Z,22.08
2023-04-08T06:19:25.988Z,21.23
2023-04-08T06:20:22.737Z,19.25
2023-04-08T06:21:19.342Z,20.27
2023-04-08T06:22:16.125Z,21.45
2023-04-08T06:23:13.103Z,17.92
2023-04-08T06:24:09.642Z,24.10
2023-04-08T06:25:07.173Z,21.45
2023-04-08T06:26:04.854Z,24.02
2023-04-08T06:27:01.545Z,21.55
2023-04-08T06:27:58.290Z,21.55
2023-04-08T06:28:54.990Z,18.52
2023-04-08T06:29:52.190Z,20.42
2023-04-08T06:30:48.729Z,18.42
2023-04-08T06:31:45.783Z,22.95
2023-04-08T06:32:42.504Z,18.10
2023-04-08T06:33:39.239Z,22.80
2023-04-08T06:34:35.845Z,23.73
2023-04-08T06:35:32.774Z,19.88
2023-04-08T06:36:29.512Z,23.60
2023-04-08T06:37:26.235Z,20.67
2023-04-08T06:38:22.805Z,23.95
2023-04-08T06:39:21.316Z,20.35
2023-04-08T06:40:18.026Z,18.92
2023-04-08T06:41:14.666Z,23.83
2023-04-08T06:42:11.302Z,21.35
2023-04-08T06:43:08.198Z,18.42
2023-04-08T06:44:04.822Z,20.15
2023-04-08T06:45:01.606Z,19.50
2023-04-08T06:45:58.402Z,18.95
2023-04-08T06:46:55.104Z,19.67
2023-04-08T06:47:51.823Z,22.80
2023-04-08T06:48:48.665Z,23.45
2023-04-08T06:49:46.688Z,19.80
2023-04-08T06:50:44.144Z,23.52
2023-04-08T06:51:40.992Z,22.95
2023-04-08T06:52:37.714Z,24.42
2023-04-08T06:53:34.422Z,21.80
2023-04-08T06:54:31.147Z,21.90
2023-04-08T06:55:27.901Z,20.23
2023-04-08T06:56:26.292Z,22.30
2023-04-08T06:57:23.308Z,25.05
2023-04-08T06:58:19.952Z,20.20
2023-04-08T06:59:16.895Z,21.00
2023-04-08T07:00:13.827Z,21.52
2023-04-08T07:01:10.687Z,21.80
2023-04-08T07:02:07.502Z,18.67
2023-04-08T07:03:04.268Z,21.90
2023-04-08T07:04:02.509Z,20.27
2023-04-08T07:04:59.240Z,22.73
2023-04-08T07:05:55.980Z,22.52
2023-04-08T07:06:52.848Z,22.90
2023-04-08T07:07:49.413Z,19.65
2023-04-08T07:08:46.453Z,23.92
2023-04-08T07:09:45.942Z,25.05
2023-04-08T07:10:42.607Z,24.58
2023-04-08T07:11:39.304Z,26.42
2023-04-08T07:12:35.867Z,25.00
2023-04-08T07:13:32.526Z,23.75
2023-04-08T07:14:30.280Z,20.50
2023-04-08T07:15:26.983Z,20.63
2023-04-08T07:16:23.567Z,23.17
2023-04-08T07:17:20.357Z,22.10
2023-04-08T07:18:17.232Z,22.15
2023-04-08T07:19:13.867Z,22.17
2023-04-08T07:20:10.902Z,20.88
2023-04-08T07:21:07.533Z,21.38
2023-04-08T07:22:04.275Z,29.73
2023-04-08T07:23:01.009Z,19.52
2023-04-08T07:23:57.634Z,22.83
2023-04-08T07:24:54.340Z,24.50
2023-04-08T07:25:50.914Z,22.67
2023-04-08T07:26:47.892Z,20.92
2023-04-08T07:27:44.688Z,18.05
2023-04-08T07:28:41.773Z,21.08
2023-04-08T07:29:38.440Z,19.60
2023-04-08T07:30:35.209Z,21.58
2023-04-08T07:31:32.058Z,23.55
2023-04-08T07:32:28.849Z,22.10
2023-04-08T07:33:26.553Z,23.67
2023-04-08T07:34:23.183Z,20.73
2023-04-08T07:35:24.464Z,20.63
2023-04-08T07:36:22.160Z,21.83
2023-04-08T07:37:19.208Z,22.10
2023-04-08T07:38:16.641Z,19.85
2023-04-08T07:39:13.284Z,20.05
2023-04-08T07:40:10.357Z,17.83
2023-04-08T07:41:07.316Z,20.00
2023-04-08T07:42:03.887Z,19.30
2023-04-08T07:43:00.712Z,18.25
2023-04-08T07:43:57.288Z,20.15
2023-04-08T07:44:54.038Z,17.27
2023-04-08T07:45:51.345Z,24.13
2023-04-08T07:46:51.988Z,21.75
2023-04-08T07:47:48.659Z,18.92
2023-04-08T07:48:45.378Z,23.08
2023-04-08T07:49:41.977Z,18.85
2023-04-08T07:51:09.455Z,22.30
2023-04-08T07:51:55.834Z,22.63
2023-04-08T07:52:53.405Z,23.40
2023-04-08T07:53:50.055Z,18.88
2023-04-08T07:54:46.645Z,21.48
2023-04-08T07:55:43.524Z,23.50
2023-04-08T07:56:40.520Z,21.40
2023-04-08T07:57:37.307Z,20.90
2023-04-08T07:58:34.029Z,20.98
2023-04-08T07:59:32.097Z,18.70
2023-04-08T08:00:30.781Z,20.80
2023-04-08T08:01:31.409Z,22.55
2023-04-08T08:02:28.294Z,21.35
2023-04-08T08:03:25.621Z,26.88
2023-04-08T08:04:25.809Z,24.63
2023-04-08T08:05:22.826Z,23.40
2023-04-08T08:06:19.522Z,19.75
2023-04-08T08:07:16.401Z,24.67
2023-04-08T08:08:13.038Z,26.77
2023-04-08T08:09:09.990Z,20.67
2023-04-08T08:10:07.260Z,23.27
2023-04-08T08:11:04.002Z,23.38
2023-04-08T08:12:00.787Z,21.92
2023-04-08T08:12:57.424Z,21.85
2023-04-08T08:13:54.194Z,22.45
2023-04-08T08:14:51.744Z,26.45
2023-04-08T08:15:53.574Z,21.85
2023-04-08T08:16:50.234Z,22.30
2023-04-08T08:17:46.898Z,23.38
2023-04-08T08:18:43.624Z,24.27
2023-04-08T08:19:40.206Z,23.05
2023-04-08T08:20:36.822Z,20.20
2023-04-08T08:21:33.548Z,21.33
2023-04-08T08:22:30.386Z,21.58
2023-04-08T08:23:27.224Z,21.60
2023-04-08T08:24:23.832Z,22.95
2023-04-08T08:25:20.661Z,24.08
2023-04-08T08:26:17.309Z,20.55
2023-04-08T08:27:13.932Z,25.38
2023-04-08T08:28:10.514Z,26.70
2023-04-08T08:29:08.934Z,25.30
2023-04-08T08:30:06.936Z,22.65
2023-04-08T08:31:03.714Z,25.98
2023-04-08T08:32:00.535Z,23.90
2023-04-08T08:32:59.242Z,24.00
2023-04-08T08:33:56.150Z,22.10
2023-04-08T08:34:52.738Z,29.42
2023-04-08T08:35:49.333Z,24.27
2023-04-08T08:36:46.030Z,23.90
2023-04-08T08:37:43.082Z,21.77
2023-04-08T08:38:39.830Z,23.05
2023-04-08T08:39:36.728Z,26.50
2023-04-08T08:40:33.422Z,28.38
2023-04-08T08:41:38.823Z,24.98
2023-04-08T08:42:35.472Z,24.35
2023-04-08T08:43:35.742Z,24.90
2023-04-08T08:44:32.701Z,22.83
2023-04-08T08:45:29.670Z,31.85
2023-04-08T08:46:26.279Z,24.67
2023-04-08T08:47:22.985Z,29.48
2023-04-08T08:48:19.858Z,21.40
2023-04-08T08:49:16.460Z,26.42
2023-04-08T08:50:13.170Z,26.75
2023-04-08T08:51:11.037Z,23.77
2023-04-08T08:52:07.787Z,28.58
2023-04-08T08:53:04.431Z,23.67
2023-04-08T08:54:04.594Z,28.02
2023-04-08T08:55:01.459Z,25.85
2023-04-08T08:56:57.494Z,26.13
2023-04-08T08:57:54.178Z,26.90
2023-04-08T08:58:50.736Z,22.30
2023-04-08T08:59:50.771Z,22.98
2023-04-08T09:00:47.576Z,26.75
2023-04-08T09:01:44.429Z,25.48
2023-04-08T09:02:41.397Z,25.02
2023-04-08T09:03:38.331Z,26.77
2023-04-08T09:04:35.452Z,27.25
2023-04-08T09:05:48.360Z,25.30
2023-04-08T09:06:47.052Z,27.90
2023-04-08T09:07:44.741Z,30.70
2023-04-08T09:08:42.207Z,37.75
2023-04-08T09:09:52.111Z,151.82
2023-04-08T09:10:48.700Z,42.83
2023-04-08T09:11:47.214Z,52.22
2023-04-08T09:12:56.550Z,294.50
2023-04-08T09:13:53.331Z,408.65
2023-04-08T09:14:50.393Z,647.17
2023-04-08T09:16:18.337Z,287.92
2023-04-08T09:17:16.405Z,558.13
2023-04-08T09:18:23.360Z,309.23
2023-04-08T09:19:21.614Z,257.30
2023-04-08T09:20:18.151Z,325.60
2023-04-08T09:21:19.383Z,137.60
2023-04-08T09:22:16.582Z,163.18
2023-04-08T09:23:13.150Z,226.25
2023-04-08T09:24:26.918Z,182.20
2023-04-08T09:25:33.861Z,329.80
2023-04-08T09:26:30.555Z,362.35
2023-04-08T09:27:35.582Z,206.70
2023-04-08T09:28:32.494Z,321.42
2023-04-08T09:29:33.360Z,136.90
2023-04-08T09:30:32.539Z,449.13
2023-04-08T09:31:31.414Z,386.90
2023-04-08T09:32:47.776Z,124.47
2023-04-08T09:33:44.485Z,234.82
2023-04-08T09:34:41.262Z,204.68
2023-04-08T09:35:38.798Z,186.23
2023-04-08T09:36:35.471Z,225.20
2023-04-08T09:37:32.517Z,174.93
2023-04-08T09:38:29.152Z,276.17
2023-04-08T09:39:25.868Z,189.63
2023-04-08T09:40:25.019Z,287.15
2023-04-08T09:41:24.351Z,50.88
2023-04-08T09:42:22.223Z,36.55
2023-04-08T09:43:24.166Z,47.75
2023-04-08T09:44:21.840Z,86.10
2023-04-08T09:45:19.314Z,37.22
2023-04-08T09:46:18.749Z,28.33
2023-04-08T09:47:29.188Z,45.58
2023-04-08T09:48:32.965Z,173.90
2023-04-08T09:49:46.417Z,133.98
2023-04-08T09:50:53.506Z,190.90
2023-04-08T09:52:00.755Z,255.30
2023-04-08T09:53:02.190Z,193.70
2023-04-08T09:54:06.820Z,182.63
2023-04-08T09:55:05.965Z,103.50
2023-04-08T09:56:08.200Z,66.22
2023-04-08T09:57:10.068Z,131.18
2023-04-08T09:58:19.102Z,171.00
2023-04-08T09:59:18.645Z,162.90
2023-04-08T10:00:17.049Z,251.35
2023-04-08T10:01:21.423Z,83.68
2023-04-08T10:02:28.773Z,94.00
2023-04-08T10:03:40.488Z,240.55
2023-04-08T10:04:41.992Z,52.42
2023-04-08T10:05:41.734Z,90.97
2023-04-08T10:06:39.683Z,154.48
2023-04-08T10:07:36.472Z,251.25
2023-04-08T10:08:33.491Z,73.72
2023-04-08T10:09:31.039Z,54.60
2023-04-08T10:10:27.929Z,140.88
2023-04-08T10:11:24.740Z,188.15
2023-04-08T10:12:21.718Z,201.15
2023-04-08T10:13:18.877Z,75.32
2023-04-08T10:14:15.485Z,100.35
2023-04-08T10:15:43.209Z,62.35
2023-04-08T10:16:39.918Z,41.58
2023-04-08T10:17:36.916Z,47.70
2023-04-08T10:18:33.711Z,46.10
2023-04-08T10:19:41.445Z,18.70
2023-04-08T10:20:38.086Z,20.60
2023-04-08T10:21:48.673Z,183.32
2023-04-08T10:22:49.088Z,123.13
2023-04-08T10:24:00.197Z,105.25
2023-04-08T10:25:18.408Z,114.97
2023-04-08T10:26:33.655Z,26.23
2023-04-08T10:27:43.318Z,55.25
2023-04-08T10:28:39.950Z,79.38
2023-04-08T10:29:36.688Z,28.15
2023-04-08T10:30:33.419Z,27.38
2023-04-08T10:31:30.178Z,36.17
2023-04-08T10:32:30.354Z,19.63
2023-04-08T10:33:29.801Z,247.02
2023-04-08T10:34:27.601Z,43.17
2023-04-08T10:35:31.426Z,80.18
2023-04-08T10:36:28.202Z,38.85
2023-04-08T10:37:24.907Z,26.88
2023-04-08T10:38:22.253Z,211.40
2023-04-08T10:39:19.519Z,91.10
2023-04-08T10:40:22.117Z,67.05
2023-04-08T10:41:24.303Z,65.28
2023-04-08T10:42:27.422Z,43.53
2023-04-08T10:43:24.284Z,20.55
2023-04-08T10:44:20.880Z,271.67
2023-04-08T10:45:18.169Z,15.63
2023-04-08T10:46:14.790Z,13.40
2023-04-08T10:47:12.761Z,48.95
2023-04-08T10:48:18.185Z,168.60
2023-04-08T10:49:17.572Z,11.95
2023-04-08T10:50:19.265Z,38.53
2023-04-08T10:51:16.829Z,164.15
2023-04-08T10:52:14.984Z,49.42
2023-04-08T10:53:11.810Z,30.77
2023-04-08T10:54:09.994Z,30.75
2023-04-08T10:55:07.543Z,48.28
2023-04-08T10:56:06.286Z,18.88
2023-04-08T10:57:03.099Z,24.23
2023-04-08T10:58:09.524Z,9.35
2023-04-08T10:59:06.410Z,26.65
2023-04-08T11:00:05.829Z,20.88
2023-04-08T11:01:07.106Z,18.15
2023-04-08T11:02:04.059Z,19.60
2023-04-08T11:03:05.179Z,18.33
2023-04-08T11:04:02.501Z,29.73
2023-04-08T11:04:59.222Z,24.80
2023-04-08T11:05:58.014Z,20.95
2023-04-08T11:06:54.627Z,17.00
2023-04-08T11:07:52.683Z,14.52
2023-04-08T11:08:49.336Z,14.25
2023-04-08T11:09:45.952Z,12.48
2023-04-08T11:10:42.772Z,21.77
2023-04-08T11:11:42.688Z,24.85
2023-04-08T11:12:40.190Z,16.83
2023-04-08T11:13:39.330Z,36.90
2023-04-08T11:14:38.414Z,42.00
2023-04-08T11:15:36.498Z,22.00
2023-04-08T11:16:35.083Z,32.13
2023-04-08T11:17:35.052Z,39.17
2023-04-08T11:18:32.358Z,46.13
2023-04-08T11:19:29.688Z,27.35
2023-04-08T11:20:26.490Z,22.58
2023-04-08T11:21:29.585Z,27.63
2023-04-08T11:22:27.342Z,14.45
2023-04-08T11:23:27.409Z,10.60
2023-04-08T11:24:24.210Z,31.50
2023-04-08T11:25:21.880Z,59.35
2023-04-08T11:26:20.111Z,37.22
2023-04-08T11:27:17.057Z,51.15
2023-04-08T11:28:14.545Z,65.88
2023-04-08T11:29:14.937Z,126.53
2023-04-08T11:30:12.189Z,189.32
2023-04-08T11:31:09.662Z,151.98
2023-04-08T11:32:06.429Z,315.00
2023-04-08T11:33:03.066Z,310.98
2023-04-08T11:33:59.687Z,115.47
2023-04-08T11:34:56.238Z,172.80
2023-04-08T11:35:53.197Z,90.22
2023-04-08T11:36:50.882Z,33.30
2023-04-08T11:37:49.714Z,23.27
2023-04-08T11:38:48.040Z,253.77
2023-04-08T11:39:45.394Z,186.93
2023-04-08T11:40:53.168Z,56.22
2023-04-08T11:41:50.150Z,29.42
2023-04-08T11:42:47.232Z,20.20
2023-04-08T11:43:54.444Z,69.80
2023-04-08T11:44:51.277Z,44.28
2023-04-08T11:45:47.953Z,86.35
2023-04-08T11:46:55.501Z,30.55
2023-04-08T11:47:52.980Z,21.65
2023-04-08T11:49:00.809Z,34.22
2023-04-08T11:49:57.862Z,47.80
2023-04-08T11:51:05.781Z,19.13
2023-04-08T11:52:02.414Z,18.33
2023-04-08T11:52:59.680Z,17.30
2023-04-08T11:53:56.976Z,16.40
2023-04-08T11:54:55.687Z,37.30
2023-04-08T11:55:52.682Z,20.55
2023-04-08T11:56:49.326Z,56.15
2023-04-08T11:57:46.486Z,17.08
2023-04-08T11:58:43.104Z,20.65
2023-04-08T11:59:39.709Z,19.02
2023-04-08T12:00:37.273Z,13.43
2023-04-08T12:01:33.893Z,17.58
2023-04-08T12:02:30.537Z,26.40
2023-04-08T12:03:27.416Z,13.88
2023-04-08T12:04:24.441Z,20.92
2023-04-08T12:05:22.677Z,19.27
2023-04-08T12:06:19.418Z,20.02
2023-04-08T12:07:16.049Z,18.02
2023-04-08T12:08:12.672Z,16.50
2023-04-08T12:09:09.437Z,21.45
2023-04-08T12:10:06.871Z,17.95
2023-04-08T12:11:13.188Z,13.30
2023-04-08T12:12:15.840Z,14.05
2023-04-08T12:13:12.387Z,13.88
2023-04-08T12:14:09.747Z,24.92
2023-04-08T12:15:08.015Z,45.50
2023-04-08T12:16:04.839Z,72.55
2023-04-08T12:17:01.427Z,33.97
2023-04-08T12:17:58.032Z,51.85
2023-04-08T12:18:54.740Z,42.17
2023-04-08T12:19:51.606Z,38.45
2023-04-08T12:20:48.297Z,25.08
2023-04-08T12:21:44.905Z,16.38
2023-04-08T12:22:41.616Z,20.00
2023-04-08T12:23:38.288Z,16.10
2023-04-08T12:24:34.906Z,18.98
2023-04-08T12:25:31.565Z,28.88
2023-04-08T12:26:28.277Z,21.55
2023-04-08T12:27:24.999Z,56.53
2023-04-08T12:28:22.353Z,16.00
2023-04-08T12:29:19.273Z,23.17
2023-04-08T12:30:16.598Z,16.08
2023-04-08T12:31:13.423Z,36.50